Time;durP1;ratioP1;P1;durP2;ratioP2;P2;SDS_P1;SDS_P2;PMS_P1;PMS_P2;Temp;Humidity;BMP_temperature;BMP_pressure;BME280_temperature;BME280_humidity;BME280_pressure;Samples;Min_cycle;Max_cycle;Signal;HPM_P1;HPM_P2
2024/01/18 00:00:30;;;;;;;3.80;1.10;;;;;;;9.61;89.75;92806.81;5012999;28;20630;-75
2024/01/18 00:02:55;;;;;;;4.37;0.93;;;;;;;9.58;89.54;92815.81;4995692;28;20218;-76
2024/01/18 00:05:21;;;;;;;3.13;1.10;;;;;;;9.55;89.56;92820.63;5027781;28;20198;-76
2024/01/18 00:07:46;;;;;;;2.67;0.90;;;;;;;9.61;88.25;92812.00;5008244;28;20183;-76
2024/01/18 00:10:11;;;;;;;2.87;0.87;;;;;;;9.54;89.44;92819.00;5030193;28;20202;-76
2024/01/18 00:12:38;;;;;;;2.07;0.90;;;;;;;9.71;87.96;92806.38;5008580;28;20266;-76
2024/01/18 00:15:04;;;;;;;0.90;0.70;;;;;;;9.67;88.40;92805.19;5010772;28;20183;-76
2024/01/18 00:17:29;;;;;;;1.30;0.90;;;;;;;9.56;88.36;92807.47;5009906;28;20201;-76
2024/01/18 00:19:55;;;;;;;2.63;1.07;;;;;;;9.42;89.09;92810.31;5010671;28;20685;-76
2024/01/18 00:22:20;;;;;;;4.13;1.23;;;;;;;9.43;89.47;92810.09;5011298;28;20306;-76
2024/01/18 00:24:45;;;;;;;3.93;1.17;;;;;;;9.51;88.61;92811.66;5030520;28;20197;-76
2024/01/18 00:27:11;;;;;;;2.80;1.07;;;;;;;9.52;88.74;92819.22;5019388;28;20187;-76
2024/01/18 00:29:36;;;;;;;1.33;1.00;;;;;;;9.57;88.51;92831.56;5028043;28;20290;-76
2024/01/18 00:32:01;;;;;;;3.23;1.10;;;;;;;9.51;89.51;92816.84;5013158;28;20187;-76
2024/01/18 00:34:27;;;;;;;1.97;0.90;;;;;;;9.52;89.65;92824.41;5027137;28;20195;-76
2024/01/18 00:36:52;;;;;;;1.53;1.10;;;;;;;9.60;89.54;92826.75;5012779;28;20286;-76
2024/01/18 00:39:19;;;;;;;1.80;0.90;;;;;;;9.54;89.84;92826.78;5011725;28;20278;-76
2024/01/18 00:41:47;;;;;;;2.73;1.10;;;;;;;9.43;90.05;92837.81;5011967;28;20240;-76
2024/01/18 00:44:14;;;;;;;3.43;1.03;;;;;;;9.46;89.55;92830.44;5009992;28;20187;-76
2024/01/18 00:46:39;;;;;;;2.40;0.87;;;;;;;9.39;90.09;92840.03;5027513;28;20252;-76
2024/01/18 00:49:05;;;;;;;2.37;1.07;;;;;;;9.56;89.16;92835.16;5011787;28;20708;-76
2024/01/18 00:51:30;;;;;;;2.13;0.90;;;;;;;9.52;89.26;92833.97;5027399;28;20187;-76
2024/01/18 00:53:55;;;;;;;1.93;0.77;;;;;;;9.40;90.64;92838.22;5011391;28;20655;-76
2024/01/18 00:56:21;;;;;;;7.33;3.37;;;;;;;9.46;90.01;92838.19;5008902;28;20179;-76
2024/01/18 00:58:47;;;;;;;2.67;1.20;;;;;;;9.38;90.86;92835.84;5011963;28;20195;-76
2024/01/18 01:01:12;;;;;;;2.27;0.90;;;;;;;9.49;89.93;92830.00;5011591;28;20175;-76
2024/01/18 01:03:38;;;;;;;2.47;0.80;;;;;;;9.48;90.19;92823.25;5026983;28;20215;-76
2024/01/18 01:06:03;;;;;;;1.00;0.80;;;;;;;9.41;90.53;92847.56;5010853;28;20282;-76
2024/01/18 01:08:29;;;;;;;1.97;0.87;;;;;;;9.29;91.27;92842.25;5027077;28;20187;-76
2024/01/18 01:10:54;;;;;;;1.83;1.00;;;;;;;9.42;90.25;92849.16;5018221;28;20203;-76
2024/01/18 01:13:19;;;;;;;2.33;1.00;;;;;;;9.44;90.88;92849.75;5026750;28;20186;-76
2024/01/18 01:15:45;;;;;;;2.93;0.77;;;;;;;9.47;90.79;92854.53;5025813;28;20816;-76
2024/01/18 01:18:11;;;;;;;2.77;1.00;;;;;;;9.47;91.35;92857.13;5028482;28;20621;-76
2024/01/18 01:20:36;;;;;;;1.23;0.70;;;;;;;9.47;91.57;92847.56;5026434;28;20253;-76
2024/01/18 01:23:02;;;;;;;1.80;0.80;;;;;;;9.46;91.30;92840.78;5027572;28;20218;-76
2024/01/18 01:25:28;;;;;;;3.23;0.80;;;;;;;9.53;90.78;92844.13;5011601;28;20230;-76
2024/01/18 01:27:53;;;;;;;2.33;0.87;;;;;;;9.50;90.82;92841.16;5013315;28;20262;-76
2024/01/18 01:30:18;;;;;;;1.57;0.90;;;;;;;9.50;90.34;92843.75;5010994;28;20203;-76
2024/01/18 01:32:44;;;;;;;3.40;1.00;;;;;;;9.54;90.04;92848.31;5026663;28;20677;-76
2024/01/18 01:35:09;;;;;;;2.07;0.97;;;;;;;9.51;89.98;92851.31;5018668;28;20222;-76
2024/01/18 01:37:34;;;;;;;4.20;0.80;;;;;;;9.58;89.41;92861.66;5025631;28;20202;-76
2024/01/18 01:40:00;;;;;;;1.50;0.70;;;;;;;9.62;89.34;92848.06;5007502;28;20243;-76
2024/01/18 01:42:25;;;;;;;3.03;1.10;;;;;;;9.52;89.66;92846.94;5010074;28;20203;-76
2024/01/18 01:44:52;;;;;;;3.27;0.83;;;;;;;9.71;89.15;92838.25;5011153;28;20183;-76
2024/01/18 01:47:18;;;;;;;1.93;0.87;;;;;;;9.50;90.09;92856.69;5009611;28;20668;-76
2024/01/18 01:49:43;;;;;;;2.93;0.90;;;;;;;9.42;90.71;92854.34;5025755;28;20230;-76
2024/01/18 01:52:08;;;;;;;2.10;0.73;;;;;;;9.56;90.47;92845.53;4995210;28;20180;-76
2024/01/18 01:54:34;;;;;;;3.10;1.00;;;;;;;9.47;90.25;92849.34;5009787;28;20256;-76
2024/01/18 01:57:02;;;;;;;2.53;1.00;;;;;;;9.45;90.36;92857.31;5009277;28;20180;-76
2024/01/18 01:59:28;;;;;;;1.87;0.63;;;;;;;9.59;89.09;92851.06;5025720;28;20207;-76
2024/01/18 02:01:53;;;;;;;3.93;0.87;;;;;;;9.51;90.07;92855.69;5009900;28;20273;-76
2024/01/18 02:04:19;;;;;;;2.13;1.10;;;;;;;9.61;89.53;92853.47;5026230;28;20728;-76
2024/01/18 02:06:46;;;;;;;1.93;1.07;;;;;;;9.71;88.83;92853.78;5013305;28;20183;-76
2024/01/18 02:09:11;;;;;;;4.10;1.20;;;;;;;9.67;89.58;92844.06;5009319;28;20277;-76
2024/01/18 02:11:37;;;;;;;1.23;0.90;;;;;;;9.58;90.16;92846.91;5017274;28;20669;-76
2024/01/18 02:14:03;;;;;;;5.70;1.10;;;;;;;9.63;90.82;92856.66;5008153;28;20199;-76
2024/01/18 02:16:29;;;;;;;2.33;1.10;;;;;;;9.61;91.09;92853.47;5010781;28;20221;-76
2024/01/18 02:18:54;;;;;;;2.37;0.90;;;;;;;9.57;91.25;92867.84;5007828;28;20866;-76
2024/01/18 02:21:20;;;;;;;1.27;0.70;;;;;;;9.60;91.77;92857.06;5016248;28;20219;-76
2024/01/18 02:23:48;;;;;;;1.63;0.90;;;;;;;9.57;92.40;92866.03;5011822;28;20281;-76
2024/01/18 02:26:14;;;;;;;2.40;1.47;;;;;;;9.50;92.62;92862.69;5026098;28;20182;-76
2024/01/18 02:29:11;;;;;;;5.50;1.40;;;;;;;9.49;93.29;92865.47;4993163;28;20567;-76
2024/01/18 02:31:37;;;;;;;5.13;2.30;;;;;;;9.23;94.53;92871.56;5003622;28;20267;-76
2024/01/18 02:34:09;;;;;;;5.00;3.00;;;;;;;9.10;94.91;92875.00;4991323;28;20195;-76
2024/01/18 02:36:35;;;;;;;92.60;7.23;;;;;;;8.36;93.76;92875.28;5007026;28;20194;-76
2024/01/18 02:39:00;;;;;;;62.80;6.30;;;;;;;8.11;93.53;92886.16;4991032;28;20658;-76
2024/01/18 02:41:26;;;;;;;175.93;10.13;;;;;;;7.51;94.52;92885.25;4967226;28;20199;-76
2024/01/18 02:43:51;;;;;;;79.23;5.67;;;;;;;7.21;94.26;92889.09;4983187;28;20211;-75
2024/01/18 02:46:19;;;;;;;251.50;12.37;;;;;;;6.80;93.74;92884.69;4984143;28;20203;-76
2024/01/18 02:48:44;;;;;;;117.50;7.00;;;;;;;6.83;93.44;92879.16;5002536;28;20246;-76
2024/01/18 02:51:10;;;;;;;171.63;10.67;;;;;;;6.44;94.60;92880.47;5013057;28;20755;-76
2024/01/18 02:53:35;;;;;;;130.83;7.87;;;;;;;6.59;94.28;92880.41;4979695;28;20625;-76
2024/01/18 02:56:01;;;;;;;323.80;19.73;;;;;;;6.19;95.66;92879.31;5015322;28;20262;-76
2024/01/18 02:58:29;;;;;;;442.13;24.57;;;;;;;6.06;95.63;92867.09;4984600;28;20246;-76
2024/01/18 03:00:54;;;;;;;6.13;2.80;;;;;;;6.13;95.69;92862.03;4970808;28;20635;-76
2024/01/18 03:03:20;;;;;;;78.50;6.37;;;;;;;6.16;95.79;92864.22;5008423;28;20234;-76
2024/01/18 03:05:45;;;;;;;232.60;14.73;;;;;;;6.10;95.74;92870.94;5015821;28;20186;-76
2024/01/18 03:08:11;;;;;;;558.10;28.10;;;;;;;5.86;95.81;92868.69;5011021;28;20227;-76
2024/01/18 03:10:36;;;;;;;116.10;7.47;;;;;;;5.95;97.07;92873.56;5028735;28;20203;-76
2024/01/18 03:13:01;;;;;;;142.87;9.30;;;;;;;5.95;96.10;92858.09;5012705;28;20237;-76
2024/01/18 03:15:26;;;;;;;143.13;8.63;;;;;;;5.94;96.05;92864.25;5014007;28;20190;-76
2024/01/18 03:17:52;;;;;;;148.50;9.30;;;;;;;5.83;96.45;92862.13;5029232;28;20187;-76
2024/01/18 03:20:17;;;;;;;49.37;4.67;;;;;;;5.83;96.63;92871.63;5013440;28;20226;-76
2024/01/18 03:22:43;;;;;;;181.20;8.80;;;;;;;5.61;95.89;92871.63;5014772;28;20203;-76
2024/01/18 03:25:08;;;;;;;190.43;10.20;;;;;;;5.36;97.51;92876.28;5029433;28;20189;-76
2024/01/18 03:27:34;;;;;;;310.07;16.60;;;;;;;4.96;97.15;92869.09;5029175;28;20230;-76
2024/01/18 03:30:00;;;;;;;368.17;17.50;;;;;;;5.06;96.26;92879.91;5012211;28;20284;-75
2024/01/18 03:32:25;;;;;;;254.87;13.23;;;;;;;4.97;96.27;92883.56;5031733;28;20728;-76
2024/01/18 03:34:51;;;;;;;70.03;5.37;;;;;;;5.24;96.04;92888.03;5030165;28;20195;-75
2024/01/18 03:37:16;;;;;;;176.13;9.17;;;;;;;4.79;96.88;92882.13;5012280;28;20189;-76
2024/01/18 03:39:41;;;;;;;88.93;6.43;;;;;;;4.87;97.13;92885.59;5028367;28;20357;-76
2024/01/18 03:42:07;;;;;;;8.77;2.53;;;;;;;5.08;96.60;92885.66;5012312;28;20662;-76
2024/01/18 03:44:35;;;;;;;102.87;7.13;;;;;;;4.79;96.12;92877.00;5013464;28;20193;-76
2024/01/18 03:47:01;;;;;;;214.27;10.33;;;;;;;4.64;96.83;92871.03;5013407;28;20601;-76
2024/01/18 03:49:26;;;;;;;185.67;9.83;;;;;;;4.65;96.28;92872.63;5028147;28;20211;-76
2024/01/18 03:51:52;;;;;;;442.67;25.30;;;;;;;4.39;96.31;92860.22;5028512;28;20274;-76
2024/01/18 03:54:18;;;;;;;2.50;2.30;;;;;;;4.70;95.43;92854.13;5013095;28;20194;-76
2024/01/18 03:56:44;;;;;;;398.67;23.60;;;;;;;4.57;95.03;92865.00;5012692;28;20187;-76
2024/01/18 03:59:13;;;;;;;148.57;11.03;;;;;;;4.63;95.03;92854.03;5017157;28;20287;-76
2024/01/18 04:01:39;;;;;;;458.27;27.20;;;;;;;4.43;94.88;92851.19;5036344;28;20198;-76
2024/01/18 04:04:04;;;;;;;72.97;6.63;;;;;;;4.68;95.14;92851.75;5011869;28;20218;-76
2024/01/18 04:06:29;;;;;;;3.20;2.90;;;;;;;4.82;95.37;92858.63;5017709;28;20224;-76
2024/01/18 04:08:54;;;;;;;278.03;16.27;;;;;;;4.42;95.50;92861.66;5012867;28;20222;-75
2024/01/18 04:11:20;;;;;;;214.90;12.00;;;;;;;4.35;96.47;92858.19;5012769;28;20198;-76
2024/01/18 04:13:47;;;;;;;420.90;23.77;;;;;;;4.05;95.98;92855.53;5011120;28;20179;-76
2024/01/18 04:16:12;;;;;;;284.70;15.93;;;;;;;4.23;96.14;92868.06;5029353;28;20217;-76
2024/01/18 04:18:37;;;;;;;323.00;18.57;;;;;;;4.20;95.77;92869.22;5027881;28;20191;-76
2024/01/18 04:21:03;;;;;;;69.67;6.27;;;;;;;4.23;95.89;92861.16;5013308;28;20190;-76
2024/01/18 04:23:28;;;;;;;42.57;5.10;;;;;;;4.33;95.29;92863.50;5025658;28;20836;-76
2024/01/18 04:25:54;;;;;;;45.63;5.27;;;;;;;4.39;94.98;92859.41;5006975;28;20449;-76
2024/01/18 04:28:19;;;;;;;40.97;4.83;;;;;;;4.47;95.12;92865.28;5026229;28;20602;-76
2024/01/18 04:30:45;;;;;;;66.87;6.20;;;;;;;4.21;95.47;92852.84;5026018;28;20346;-76
2024/01/18 04:33:10;;;;;;;12.50;4.30;;;;;;;4.43;95.19;92865.81;5026214;28;20187;-76
2024/01/18 04:35:35;;;;;;;4.17;3.77;;;;;;;4.44;95.50;92859.69;5025998;28;20597;-76
2024/01/18 04:38:01;;;;;;;37.67;5.40;;;;;;;4.34;95.24;92859.16;5010197;28;20198;-76
2024/01/18 04:40:26;;;;;;;9.37;4.17;;;;;;;4.45;95.58;92863.84;5022500;28;20215;-76
2024/01/18 04:42:52;;;;;;;3.70;3.33;;;;;;;4.55;95.42;92862.63;5027541;28;20203;-76
2024/01/18 04:45:18;;;;;;;8.03;3.87;;;;;;;4.41;94.61;92865.16;5012176;28;20532;-76
2024/01/18 04:47:43;;;;;;;20.03;4.97;;;;;;;4.30;95.30;92866.41;5028245;28;20213;-76
2024/01/18 04:50:09;;;;;;;8.77;4.07;;;;;;;4.23;95.94;92858.59;5016558;28;20272;-76
2024/01/18 04:52:34;;;;;;;10.70;5.63;;;;;;;4.13;96.76;92859.81;5012203;28;20182;-76
2024/01/18 04:55:03;;;;;;;37.30;6.37;;;;;;;4.11;94.81;92862.56;4994827;28;20191;-76
2024/01/18 04:57:28;;;;;;;11.57;5.67;;;;;;;4.23;95.93;92868.06;5012206;28;20179;-76
2024/01/18 04:59:54;;;;;;;15.97;4.63;;;;;;;4.31;95.59;92867.19;5007955;28;20219;-76
2024/01/18 05:02:19;;;;;;;141.77;9.03;;;;;;;3.73;97.58;92866.88;5024444;28;20297;-76
2024/01/18 05:04:45;;;;;;;49.07;5.63;;;;;;;3.90;97.25;92876.06;5027197;28;20669;-76
2024/01/18 05:07:10;;;;;;;77.17;6.97;;;;;;;3.93;96.38;92890.31;5027384;28;20180;-76
2024/01/18 05:09:36;;;;;;;7.47;3.87;;;;;;;4.09;95.93;92886.81;5010170;28;20241;-76
2024/01/18 05:12:01;;;;;;;8.37;3.10;;;;;;;4.03;95.73;92893.44;4994347;28;20673;-76
2024/01/18 05:14:27;;;;;;;48.17;5.67;;;;;;;3.90;95.20;92883.75;5027002;28;20202;-76
2024/01/18 05:16:54;;;;;;;4.73;3.17;;;;;;;4.08;95.64;92890.38;5012488;28;20225;-76
2024/01/18 05:19:21;;;;;;;6.57;3.33;;;;;;;4.04;95.31;92899.38;5027659;28;20207;-76
2024/01/18 05:21:46;;;;;;;6.77;2.80;;;;;;;4.01;95.69;92905.66;5026620;28;20186;-76
2024/01/18 05:24:12;;;;;;;14.60;3.97;;;;;;;3.79;96.13;92899.56;5032784;28;21223;-76
2024/01/18 05:26:37;;;;;;;115.60;8.37;;;;;;;3.60;96.16;92894.88;5026930;28;20657;-75
2024/01/18 05:29:02;;;;;;;464.30;26.87;;;;;;;3.57;95.20;92911.41;5009576;28;20246;-78
2024/01/18 05:31:28;;;;;;;336.67;19.80;;;;;;;3.48;94.79;92915.00;5026152;28;20727;-75
2024/01/18 05:33:56;;;;;;;402.00;24.97;;;;;;;3.30;94.92;92911.88;5026560;28;20296;-76
2024/01/18 05:36:21;;;;;;;260.03;16.77;;;;;;;3.37;94.79;92912.81;5013043;28;20183;-76
2024/01/18 05:38:46;;;;;;;423.50;26.03;;;;;;;3.27;94.53;92909.63;5009969;28;20224;-75
2024/01/18 05:41:12;;;;;;;130.47;8.80;;;;;;;3.33;94.44;92908.97;5011016;28;20195;-76
2024/01/18 05:43:37;;;;;;;179.17;11.10;;;;;;;3.28;94.21;92914.63;5026335;28;20220;-75
2024/01/18 05:46:02;;;;;;;177.27;14.07;;;;;;;3.22;93.69;92919.63;5025939;28;20234;-76
2024/01/18 05:48:29;;;;;;;203.27;12.50;;;;;;;3.10;93.68;92916.63;5011971;28;20185;-76
2024/01/18 05:50:54;;;;;;;97.93;8.40;;;;;;;2.99;94.56;92919.53;5009407;28;20199;-76
2024/01/18 05:53:20;;;;;;;84.67;8.30;;;;;;;3.07;93.78;92917.75;5026575;28;20669;-76
2024/01/18 05:55:45;;;;;;;267.03;17.37;;;;;;;2.82;93.63;92911.91;5026071;28;20206;-76
2024/01/18 05:58:12;;;;;;;135.83;9.57;;;;;;;2.83;93.69;92905.84;5026359;28;20194;-76
2024/01/18 06:00:38;;;;;;;108.90;7.60;;;;;;;2.87;93.82;92902.94;5013155;28;20203;-75
2024/01/18 06:03:03;;;;;;;57.93;5.70;;;;;;;2.74;93.01;92906.81;5009715;28;20274;-76
2024/01/18 06:05:29;;;;;;;41.23;3.70;;;;;;;2.83;93.10;92907.59;5009369;28;20195;-76
2024/01/18 06:07:54;;;;;;;215.53;13.03;;;;;;;2.71;93.36;92903.78;5014986;28;20209;-76
2024/01/18 06:10:20;;;;;;;309.30;17.83;;;;;;;2.55;93.50;92896.91;5024885;28;20285;-76
2024/01/18 06:12:46;;;;;;;185.30;14.93;;;;;;;2.41;93.20;92895.84;5010093;28;20218;-76
2024/01/18 06:15:11;;;;;;;54.27;4.53;;;;;;;2.60;93.76;92893.88;5025963;28;20589;-76
2024/01/18 06:17:36;;;;;;;265.43;18.50;;;;;;;2.54;92.48;92896.13;5009576;28;20561;-76
2024/01/18 06:20:02;;;;;;;256.17;16.50;;;;;;;2.55;93.62;92902.03;5009060;28;20705;-76
2024/01/18 06:22:28;;;;;;;69.20;5.87;;;;;;;2.63;93.83;92898.66;5010712;28;20218;-76
2024/01/18 06:24:54;;;;;;;9.60;2.57;;;;;;;2.69;92.87;92892.91;5025801;28;20195;-76
2024/01/18 06:27:19;;;;;;;6.57;2.73;;;;;;;2.67;93.21;92897.38;5011009;28;20221;-76
2024/01/18 06:29:45;;;;;;;190.83;11.80;;;;;;;2.62;92.37;92897.06;5025529;28;20234;-76
2024/01/18 06:32:10;;;;;;;31.37;3.57;;;;;;;2.63;92.55;92896.09;5021681;28;20194;-76
2024/01/18 06:34:36;;;;;;;58.90;4.93;;;;;;;2.67;92.21;92894.81;5003763;28;20194;-76
2024/01/18 06:37:01;;;;;;;93.20;6.63;;;;;;;2.51;92.34;92891.34;5005401;28;20187;-76
2024/01/18 06:39:26;;;;;;;62.13;5.43;;;;;;;2.60;92.28;92899.00;5009521;28;20220;-76
2024/01/18 06:41:52;;;;;;;7.60;3.10;;;;;;;2.54;92.18;92898.69;5028835;28;20579;-75
2024/01/18 06:44:17;;;;;;;6.93;2.90;;;;;;;2.55;91.94;92892.59;5029914;28;20187;-76
2024/01/18 06:46:42;;;;;;;14.07;3.10;;;;;;;2.50;92.27;92887.19;5022988;28;20191;-76
2024/01/18 06:49:08;;;;;;;30.63;3.17;;;;;;;2.50;91.36;92881.25;5011812;28;20200;-77
2024/01/18 06:51:34;;;;;;;2.27;2.07;;;;;;;2.74;91.11;92880.38;5013780;28;20720;-77
2024/01/18 06:53:59;;;;;;;2.37;2.00;;;;;;;2.59;91.22;92867.47;5017526;28;20548;-77
2024/01/18 06:56:25;;;;;;;3.73;2.70;;;;;;;2.68;91.39;92868.25;5026793;28;20222;-77
2024/01/18 06:58:50;;;;;;;2.90;2.60;;;;;;;2.62;90.86;92874.00;5015614;28;20286;-77
2024/01/18 07:01:15;;;;;;;3.07;2.53;;;;;;;2.65;91.79;92869.38;5030621;28;20280;-76
2024/01/18 07:03:42;;;;;;;2.80;2.60;;;;;;;2.86;90.75;92873.94;5024012;28;20203;-76
2024/01/18 07:06:07;;;;;;;3.63;2.60;;;;;;;2.83;91.00;92880.19;5010063;28;20198;-75
2024/01/18 07:08:33;;;;;;;4.13;3.73;;;;;;;2.82;91.22;92876.00;4992489;28;20195;-76
2024/01/18 07:11:01;;;;;;;3.20;2.90;;;;;;;2.82;90.33;92877.78;5013838;28;20527;-76
2024/01/18 07:13:26;;;;;;;3.30;3.00;;;;;;;2.90;91.30;92874.38;5010698;28;20186;-75
2024/01/18 07:15:52;;;;;;;6.03;5.23;;;;;;;2.95;91.22;92879.81;5006253;28;20191;-76
2024/01/18 07:18:17;;;;;;;7.77;6.93;;;;;;;2.97;91.23;92876.13;5021647;28;20593;-75
2024/01/18 07:20:42;;;;;;;8.20;6.77;;;;;;;3.03;90.96;92877.22;5025731;28;20204;-76
2024/01/18 07:23:08;;;;;;;6.57;5.33;;;;;;;2.89;91.04;92881.28;5020235;28;20210;-76
2024/01/18 07:25:33;;;;;;;5.63;3.63;;;;;;;2.78;90.79;92891.91;5026450;28;20799;-76
2024/01/18 07:27:58;;;;;;;3.77;3.03;;;;;;;2.83;91.07;92900.72;5013726;28;20700;-76
2024/01/18 07:30:24;;;;;;;6.90;5.60;;;;;;;2.73;91.37;92901.84;5041849;28;20700;-76
2024/01/18 07:32:49;;;;;;;13.47;2.13;;;;;;;2.57;91.08;92910.38;5013678;28;20183;-76
2024/01/18 07:35:15;;;;;;;5.53;5.03;;;;;;;2.54;91.03;92903.81;5013411;28;20218;-76
2024/01/18 07:37:40;;;;;;;3.57;2.30;;;;;;;2.61;90.93;92898.03;5029309;28;20563;-75
2024/01/18 07:40:06;;;;;;;6.47;3.30;;;;;;;2.63;91.00;92906.34;5024990;28;20608;-76
2024/01/18 07:42:32;;;;;;;105.77;7.70;;;;;;;2.15;91.44;92900.38;5037273;28;20226;-76
2024/01/18 07:44:58;;;;;;;62.43;8.23;;;;;;;2.09;91.96;92898.44;5012154;28;20194;-76
2024/01/18 07:47:24;;;;;;;6.00;5.03;;;;;;;2.25;91.25;92898.44;5028806;28;20183;-76
2024/01/18 07:49:50;;;;;;;42.67;5.67;;;;;;;2.09;92.09;92906.13;5027733;28;20207;-76
2024/01/18 07:52:16;;;;;;;23.93;6.83;;;;;;;2.23;91.86;92908.03;5011818;28;20214;-75
2024/01/18 07:54:42;;;;;;;50.50;9.17;;;;;;;2.17;91.34;92912.03;5034581;28;20191;-75
2024/01/18 07:57:07;;;;;;;80.13;6.40;;;;;;;1.98;91.68;92905.47;5008446;28;20570;-75
2024/01/18 07:59:34;;;;;;;40.40;5.97;;;;;;;1.97;92.14;92924.38;5027674;28;20215;-76
2024/01/18 08:01:59;;;;;;;127.30;8.50;;;;;;;1.85;91.82;92920.50;5022457;28;20194;-76
2024/01/18 08:04:25;;;;;;;48.93;8.97;;;;;;;2.04;92.11;92921.97;4999513;28;20191;-76
2024/01/18 08:06:50;;;;;;;10.10;5.10;;;;;;;2.11;91.25;92922.09;5010903;28;20194;-76
2024/01/18 08:09:16;;;;;;;16.73;6.07;;;;;;;2.08;91.64;92922.44;5011145;28;20573;-76
2024/01/18 08:11:42;;;;;;;124.33;9.53;;;;;;;1.73;91.20;92923.53;5016661;28;20191;-76
2024/01/18 08:14:07;;;;;;;189.70;14.80;;;;;;;1.67;91.58;92928.31;5027958;28;20265;-76
2024/01/18 08:16:33;;;;;;;97.57;9.93;;;;;;;1.92;91.15;92924.03;5028131;28;20554;-76
2024/01/18 08:18:59;;;;;;;71.97;11.20;;;;;;;1.93;90.86;92935.88;5010639;28;20207;-75
2024/01/18 08:21:24;;;;;;;14.27;8.20;;;;;;;1.91;91.71;92945.47;5027596;28;20198;-76
2024/01/18 08:23:49;;;;;;;48.07;5.40;;;;;;;1.85;90.35;92940.97;5027773;28;20230;-76
2024/01/18 08:26:16;;;;;;;320.03;21.30;;;;;;;1.60;90.96;92952.16;5027859;28;20187;-75
2024/01/18 08:28:43;;;;;;;161.13;15.03;;;;;;;1.48;91.48;92950.81;5027677;28;20183;-75
2024/01/18 08:31:08;;;;;;;123.13;10.27;;;;;;;1.39;90.41;92963.59;5011357;28;20199;-75
2024/01/18 08:33:33;;;;;;;148.53;12.03;;;;;;;1.33;91.28;92966.00;5020165;28;20608;-75
2024/01/18 08:35:59;;;;;;;38.77;5.07;;;;;;;1.37;91.50;92975.75;5005350;28;20281;-75
2024/01/18 08:38:24;;;;;;;88.23;6.77;;;;;;;1.36;91.67;92991.25;5037237;28;20341;-76
2024/01/18 08:40:50;;;;;;;111.80;10.13;;;;;;;1.23;91.79;92983.19;5008874;28;20238;-76
2024/01/18 08:43:15;;;;;;;32.07;6.80;;;;;;;1.27;92.18;92982.75;4996504;28;20231;-76
2024/01/18 08:45:41;;;;;;;36.37;4.20;;;;;;;1.28;91.71;92992.00;5012237;28;20187;-76
2024/01/18 08:48:07;;;;;;;29.77;5.33;;;;;;;1.21;91.40;92991.00;5029334;28;20183;-76
2024/01/18 08:50:33;;;;;;;45.17;7.23;;;;;;;1.33;91.33;92989.81;5012439;28;20280;-78
2024/01/18 08:52:58;;;;;;;30.30;6.27;;;;;;;1.12;91.90;92981.72;5014276;28;20188;-78
2024/01/18 08:55:23;;;;;;;15.40;4.47;;;;;;;1.29;92.00;92993.59;5012518;28;20241;-75
2024/01/18 08:57:52;;;;;;;24.77;5.77;;;;;;;1.06;92.47;92995.09;5010576;28;20245;-75
2024/01/18 09:00:17;;;;;;;25.33;4.87;;;;;;;1.09;91.81;93005.03;5023468;28;20211;-76
2024/01/18 09:02:46;;;;;;;15.83;7.30;;;;;;;1.06;92.01;93008.69;5017135;28;20215;-76
2024/01/18 09:05:12;;;;;;;10.30;6.60;;;;;;;1.17;91.55;93033.19;5041510;28;20187;-76
2024/01/18 09:07:37;;;;;;;9.57;8.10;;;;;;;1.03;91.56;93039.66;5011755;28;20546;-75
2024/01/18 09:10:04;;;;;;;3.10;2.80;;;;;;;0.91;92.37;93037.53;5011194;28;20211;-76
2024/01/18 09:12:29;;;;;;;4.70;4.33;;;;;;;0.91;91.02;93043.44;5010355;28;20186;-76
2024/01/18 09:14:55;;;;;;;6.10;5.30;;;;;;;0.95;91.48;93049.03;5010423;28;20195;-76
2024/01/18 09:17:20;;;;;;;3.73;3.40;;;;;;;0.96;90.81;93055.75;5027137;28;20194;-76
2024/01/18 09:19:46;;;;;;;3.90;3.07;;;;;;;0.78;91.04;93055.78;5026889;28;20214;-76
2024/01/18 09:22:11;;;;;;;2.10;1.90;;;;;;;0.79;91.63;93049.72;5010431;28;20191;-76
2024/01/18 09:24:37;;;;;;;3.73;3.27;;;;;;;0.79;90.85;93045.41;5016551;28;20199;-77
2024/01/18 09:27:02;;;;;;;2.97;2.67;;;;;;;0.87;90.88;93057.44;5027690;28;20553;-75
2024/01/18 09:29:28;;;;;;;2.40;2.20;;;;;;;0.99;91.00;93055.47;5009534;28;20601;-76
2024/01/18 09:31:53;;;;;;;2.10;1.90;;;;;;;1.09;90.45;93056.94;5034819;28;20202;-76
2024/01/18 09:34:19;;;;;;;2.43;2.23;;;;;;;0.98;90.50;93069.19;5011775;28;20254;-77
2024/01/18 09:36:44;;;;;;;2.33;2.00;;;;;;;1.10;90.16;93079.00;5016127;28;20196;-76
2024/01/18 09:39:15;;;;;;;4.67;3.40;;;;;;;0.82;90.37;93086.00;5008908;28;20230;-76
2024/01/18 09:41:51;;;;;;;7.13;6.53;;;;;;;0.65;91.46;93102.16;5010409;28;20207;-76
2024/01/18 09:44:24;;;;;;;9.77;7.67;;;;;;;0.84;91.02;93119.88;5013284;28;20198;-76
2024/01/18 09:46:50;;;;;;;10.40;3.40;;;;;;;0.61;91.12;93135.78;5024469;28;20382;-76
2024/01/18 09:49:15;;;;;;;68.83;6.17;;;;;;;0.51;92.10;93154.53;5025660;28;20752;-76
2024/01/18 09:51:42;;;;;;;26.10;3.77;;;;;;;0.47;92.73;93160.09;5026965;28;20199;-76
2024/01/18 09:54:07;;;;;;;7.57;3.27;;;;;;;0.61;92.59;93172.34;5009375;28;20284;-76
2024/01/18 09:56:38;;;;;;;2.77;2.57;;;;;;;0.49;93.00;93178.63;5024449;28;20211;-76
2024/01/18 09:59:04;;;;;;;2.77;2.10;;;;;;;0.30;93.64;93182.13;5025588;28;20210;-76
2024/01/18 10:01:30;;;;;;;26.03;3.80;;;;;;;0.33;93.78;93184.38;5025958;28;20183;-76
2024/01/18 10:03:55;;;;;;;13.57;3.03;;;;;;;0.41;93.32;93181.91;5008588;28;20216;-76
2024/01/18 10:06:21;;;;;;;5.80;2.67;;;;;;;0.45;93.83;93190.09;5011013;28;20553;-76
2024/01/18 10:08:47;;;;;;;3.20;2.50;;;;;;;0.44;94.02;93185.91;5026413;28;20561;-76
2024/01/18 10:11:13;;;;;;;2.23;1.93;;;;;;;0.32;92.61;93184.53;4999479;28;20556;-76
2024/01/18 10:13:54;;;;;;;4.63;4.23;;;;;;;0.38;92.75;93183.94;5009679;28;20183;-76
2024/01/18 10:16:35;;;;;;;4.07;3.77;;;;;;;0.26;92.79;93181.59;4992123;28;20277;-76
2024/01/18 10:19:02;;;;;;;17.07;15.67;;;;;;;0.38;92.15;93181.41;4997395;28;20206;-76
2024/01/18 10:21:29;;;;;;;12.77;11.70;;;;;;;0.28;92.25;93194.22;5009223;28;20659;-76
2024/01/18 10:23:55;;;;;;;11.13;10.23;;;;;;;0.63;91.78;93203.69;4987358;28;20861;-76
2024/01/18 10:26:22;;;;;;;6.73;6.03;;;;;;;0.55;91.42;93193.38;5025291;28;20190;-76
2024/01/18 10:28:47;;;;;;;8.37;7.57;;;;;;;0.63;91.35;93211.34;5019532;28;20190;-76
2024/01/18 10:31:13;;;;;;;5.03;4.53;;;;;;;0.52;91.61;93225.09;5026383;28;20248;-76
2024/01/18 10:33:39;;;;;;;15.90;14.47;;;;;;;0.47;92.78;93224.75;5008976;28;20182;-76
2024/01/18 10:36:05;;;;;;;13.90;6.03;;;;;;;0.38;93.75;93227.34;5025846;28;20190;-77
2024/01/18 10:38:30;;;;;;;12.00;7.23;;;;;;;0.46;92.71;93227.44;5026410;28;20552;-76
2024/01/18 10:40:59;;;;;;;6.10;5.50;;;;;;;0.65;92.57;93232.44;5010031;28;20676;-76
2024/01/18 10:43:30;;;;;;;6.70;6.20;;;;;;;0.83;91.91;93230.69;5011718;28;20748;-76
2024/01/18 10:45:56;;;;;;;3.90;3.50;;;;;;;0.77;91.14;93235.56;5009592;28;20672;-76
2024/01/18 10:48:22;;;;;;;4.43;3.00;;;;;;;0.67;90.77;93245.06;5007448;28;20554;-76
2024/01/18 10:50:51;;;;;;;2.90;2.60;;;;;;;0.68;89.91;93252.56;5008560;28;20206;-76
2024/01/18 10:53:16;;;;;;;3.97;3.57;;;;;;;0.57;89.50;93260.44;5009132;28;20547;-76
2024/01/18 10:55:42;;;;;;;3.40;3.10;;;;;;;0.39;90.02;93264.69;5009994;28;20187;-76
2024/01/18 10:58:08;;;;;;;5.50;3.10;;;;;;;0.11;90.21;93266.44;5008972;28;20203;-76
2024/01/18 11:00:33;;;;;;;3.23;2.93;;;;;;;0.27;89.81;93270.00;5024733;28;20214;-76
2024/01/18 11:02:59;;;;;;;5.20;3.37;;;;;;;0.26;90.45;93275.22;5007966;28;20580;-76
2024/01/18 11:05:25;;;;;;;3.40;3.10;;;;;;;0.16;90.89;93285.47;5017044;28;20191;-77
2024/01/18 11:07:51;;;;;;;7.93;5.47;;;;;;;0.26;90.95;93293.09;5009193;28;20202;-77
2024/01/18 11:10:16;;;;;;;9.67;5.17;;;;;;;0.44;89.96;93298.25;5009275;28;20210;-77
2024/01/18 11:12:45;;;;;;;22.93;13.13;;;;;;;0.46;90.18;93304.06;5025763;28;20191;-77
2024/01/18 11:15:11;;;;;;;12.40;10.80;;;;;;;0.52;89.36;93313.69;5007066;28;20195;-77
2024/01/18 11:17:46;;;;;;;9.20;8.30;;;;;;;0.55;87.75;93318.53;5026123;28;20202;-77
2024/01/18 11:20:12;;;;;;;4.00;3.60;;;;;;;-0.25;89.64;93312.22;5008695;28;20214;-74
2024/01/18 11:22:39;;;;;;;7.43;6.73;;;;;;;0.23;89.08;93318.91;5011989;28;20210;-77
2024/01/18 11:25:06;;;;;;;8.23;7.53;;;;;;;0.46;88.23;93324.47;5028374;28;20195;-77
2024/01/18 11:27:39;;;;;;;6.97;6.20;;;;;;;0.53;87.95;93322.94;5029871;28;20595;-77